createdAt,value
2019-01-09T06:12:33.954Z,15.00
2019-01-09T06:15:03.208Z,15.60
2019-01-09T06:17:32.685Z,15.60
2019-01-09T06:20:02.249Z,15.60
2019-01-09T06:22:30.945Z,15.70
2019-01-09T06:27:28.096Z,15.70
2019-01-09T06:29:57.265Z,15.70
2019-01-09T06:32:26.372Z,15.70
2019-01-09T06:34:55.928Z,15.80
2019-01-09T06:37:27.697Z,15.80
2019-01-09T06:39:54.545Z,15.80
2019-01-09T06:42:23.715Z,15.80
2019-01-09T06:44:53.923Z,15.80
2019-01-09T06:47:23.599Z,15.80
2019-01-09T06:49:53.007Z,15.80
2019-01-09T06:52:22.233Z,15.90
2019-01-09T06:54:51.693Z,15.90
2019-01-09T06:57:20.742Z,15.90
2019-01-09T06:59:50.012Z,15.90
2019-01-09T07:02:19.057Z,15.90
2019-01-09T07:04:48.245Z,16.00
2019-01-09T07:07:17.227Z,15.90
2019-01-09T07:09:46.459Z,16.00
2019-01-09T07:12:15.491Z,16.00
2019-01-09T07:14:45.816Z,16.00
2019-01-09T07:17:15.043Z,16.00
2019-01-09T07:19:44.641Z,16.10
2019-01-09T07:22:13.846Z,16.10
2019-01-09T07:24:42.720Z,16.10
2019-01-09T07:27:11.816Z,16.10
2019-01-09T07:29:41.197Z,16.20
2019-01-09T07:32:10.221Z,16.20
2019-01-09T07:34:39.406Z,16.30
2019-01-09T07:37:08.826Z,16.30
2019-01-09T07:39:38.320Z,16.30
2019-01-09T07:42:08.468Z,16.30
2019-01-09T07:44:37.656Z,16.40
2019-01-09T07:47:07.083Z,16.40
2019-01-09T07:49:35.932Z,16.50
2019-01-09T07:52:05.293Z,16.50
2019-01-09T07:54:34.409Z,16.50
2019-01-09T07:57:03.174Z,16.50
2019-01-09T07:59:35.091Z,16.50
2019-01-09T08:02:04.377Z,16.60
2019-01-09T08:04:32.984Z,16.60
2019-01-09T08:07:01.912Z,16.60
2019-01-09T08:09:30.717Z,16.60
2019-01-09T08:12:01.043Z,16.60
2019-01-09T08:14:29.937Z,16.70
2019-01-09T08:16:59.078Z,16.70
2019-01-09T08:19:28.534Z,16.70
2019-01-09T08:21:57.579Z,16.80
2019-01-09T08:24:26.868Z,16.80
2019-01-09T08:26:55.384Z,16.80
2019-01-09T08:29:24.216Z,16.80
2019-01-09T08:31:53.412Z,16.90
2019-01-09T08:34:22.131Z,16.90
2019-01-09T08:39:22.847Z,17.00
2019-01-09T08:41:52.242Z,17.00
2019-01-09T08:44:21.037Z,17.00
2019-01-09T08:46:50.258Z,17.00
2019-01-09T08:49:19.295Z,17.10
2019-01-09T08:51:49.096Z,17.10
2019-01-09T08:54:19.640Z,17.20
2019-01-09T08:56:48.545Z,17.20
2019-01-09T08:59:17.760Z,17.20
2019-01-09T09:01:47.382Z,17.30
2019-01-09T09:04:16.699Z,17.30
2019-01-09T09:06:45.599Z,17.30
2019-01-09T09:09:14.381Z,17.30
2019-01-09T09:11:43.845Z,17.30
2019-01-09T09:14:15.614Z,17.30
2019-01-09T09:16:44.697Z,17.30
2019-01-09T09:19:13.433Z,17.40
2019-01-09T09:21:43.417Z,17.40
2019-01-09T09:24:12.160Z,17.30
2019-01-09T09:26:41.218Z,17.40
2019-01-09T09:29:10.059Z,17.40
2019-01-09T09:31:39.295Z,17.40
2019-01-09T09:34:08.591Z,17.40
2019-01-09T09:36:37.292Z,17.40
2019-01-09T09:39:09.540Z,17.40
2019-01-09T09:41:40.335Z,17.40
2019-01-09T09:44:09.181Z,17.40
2019-01-09T09:46:37.886Z,17.40
2019-01-09T09:49:07.934Z,17.40
2019-01-09T09:51:37.052Z,17.40
2019-01-09T09:54:06.679Z,17.40
2019-01-09T09:56:35.493Z,17.40
2019-01-09T09:59:12.926Z,17.40
2019-01-09T10:01:44.941Z,17.40
2019-01-09T10:04:13.970Z,17.50
2019-01-09T10:06:43.432Z,17.50
2019-01-09T10:09:14.235Z,17.50
2019-01-09T10:11:45.308Z,17.50
2019-01-09T10:14:14.359Z,17.50
2019-01-09T10:16:43.304Z,17.50
2019-01-09T10:19:12.077Z,17.50
2019-01-09T10:21:41.268Z,17.60
2019-01-09T10:24:09.991Z,17.60
2019-01-09T10:26:38.883Z,17.60
2019-01-09T10:29:08.803Z,17.60
2019-01-09T10:31:37.995Z,17.60
2019-01-09T10:34:06.704Z,17.60
2019-01-09T10:36:35.959Z,17.60
2019-01-09T10:39:08.681Z,17.60
2019-01-09T10:41:37.416Z,17.60
2019-01-09T10:44:07.539Z,17.60
2019-01-09T10:46:36.388Z,17.60
2019-01-09T10:49:05.909Z,17.70
2019-01-09T10:51:35.521Z,17.60
2019-01-09T10:54:04.358Z,17.70
2019-01-09T10:56:33.559Z,17.70
2019-01-09T10:59:04.205Z,17.70
2019-01-09T11:01:32.984Z,17.70
2019-01-09T11:04:04.025Z,17.70
2019-01-09T11:06:34.413Z,17.70
2019-01-09T11:09:03.536Z,17.70
2019-01-09T11:11:33.017Z,17.80
2019-01-09T11:14:02.672Z,17.80
2019-01-09T11:16:33.324Z,17.80
2019-01-09T11:19:02.056Z,17.80
2019-01-09T11:24:00.761Z,17.80
2019-01-09T11:26:29.952Z,17.80
2019-01-09T11:28:58.950Z,17.80
2019-01-09T11:31:29.201Z,17.80
2019-01-09T11:33:57.907Z,17.80
2019-01-09T11:36:26.846Z,17.80
2019-01-09T11:38:57.512Z,17.80
2019-01-09T11:41:26.369Z,17.90
2019-01-09T11:43:55.971Z,17.80
2019-01-09T11:46:27.711Z,17.90
2019-01-09T11:48:56.900Z,17.90
2019-01-09T11:51:26.085Z,17.90
2019-01-09T11:53:59.328Z,17.90
2019-01-09T11:56:28.887Z,17.90
2019-01-09T11:58:57.611Z,17.90
2019-01-09T12:01:27.452Z,17.90
2019-01-09T12:03:56.772Z,17.90
2019-01-09T12:06:25.671Z,17.90
2019-01-09T12:09:04.262Z,17.90
2019-01-09T12:11:24.915Z,17.90
2019-01-09T12:13:53.614Z,17.90
2019-01-09T12:16:22.316Z,18.00
2019-01-09T12:18:52.206Z,18.00
2019-01-09T12:21:21.330Z,18.00
2019-01-09T12:23:50.183Z,18.00
2019-01-09T12:26:19.998Z,18.00
2019-01-09T12:28:53.780Z,18.00
2019-01-09T12:31:18.000Z,18.00
2019-01-09T12:33:46.849Z,18.00
2019-01-09T12:36:16.181Z,18.00
2019-01-09T12:38:45.515Z,18.00
2019-01-09T12:41:14.352Z,18.00
2019-01-09T12:43:43.469Z,18.00
2019-01-09T12:46:12.821Z,18.00
2019-01-09T12:48:41.956Z,18.00
2019-01-09T12:51:11.188Z,18.00
2019-01-09T12:53:40.027Z,18.00
2019-01-09T12:56:09.821Z,18.00
2019-01-09T12:58:38.936Z,18.00
2019-01-09T13:01:08.085Z,18.00
2019-01-09T13:03:38.175Z,18.00
2019-01-09T13:06:07.398Z,18.00
2019-01-09T13:08:36.679Z,18.00
2019-01-09T13:11:05.554Z,18.00
2019-01-09T13:13:34.415Z,18.00
2019-01-09T13:16:03.799Z,18.00
2019-01-09T13:18:32.845Z,18.00
2019-01-09T13:21:01.576Z,18.00
2019-01-09T13:23:30.668Z,18.00
2019-01-09T13:25:59.414Z,18.00
2019-01-09T13:28:29.101Z,18.00
2019-01-09T13:30:58.236Z,18.00
2019-01-09T13:33:27.011Z,18.00
2019-01-09T13:35:55.820Z,18.00
2019-01-09T13:38:24.836Z,18.00
2019-01-09T13:40:53.975Z,18.10
2019-01-09T13:43:22.700Z,18.10
2019-01-09T13:45:52.456Z,18.10
2019-01-09T13:48:21.503Z,18.10
2019-01-09T13:50:50.274Z,18.10
2019-01-09T13:53:19.033Z,18.10
2019-01-09T13:55:48.553Z,18.10
2019-01-09T13:58:17.263Z,18.10
2019-01-09T14:00:46.091Z,18.10
2019-01-09T14:03:14.943Z,18.10
2019-01-09T14:05:43.652Z,18.00
2019-01-09T14:08:12.781Z,18.00
2019-01-09T14:10:42.176Z,18.00
2019-01-09T14:13:14.055Z,18.00
2019-01-09T14:15:42.885Z,18.00
2019-01-09T14:18:11.736Z,18.00
2019-01-09T14:20:40.897Z,17.90
2019-01-09T14:23:10.350Z,17.90
2019-01-09T14:25:39.443Z,17.90
2019-01-09T14:28:08.230Z,17.90
2019-01-09T14:30:37.448Z,17.90
2019-01-09T14:33:06.591Z,17.90
2019-01-09T14:35:36.440Z,17.80
2019-01-09T14:38:05.940Z,17.80
2019-01-09T14:40:37.145Z,17.80
2019-01-09T14:43:04.069Z,17.80
2019-01-09T14:45:34.463Z,17.90
2019-01-09T14:48:03.579Z,17.80
2019-01-09T14:53:02.257Z,17.90
2019-01-09T14:55:31.759Z,17.90
2019-01-09T14:58:00.623Z,17.90
2019-01-09T15:00:29.643Z,17.90
2019-01-09T15:02:58.447Z,17.90
2019-01-09T15:05:27.608Z,18.00
2019-01-09T15:07:57.512Z,18.00
2019-01-09T15:10:28.558Z,18.00
2019-01-09T15:12:58.051Z,18.00
2019-01-09T15:15:27.939Z,18.00
2019-01-09T15:17:56.689Z,18.10
2019-01-09T15:20:25.431Z,18.10
2019-01-09T15:22:54.725Z,18.10
2019-01-09T15:25:24.249Z,18.10
2019-01-09T15:27:52.944Z,18.20
2019-01-09T15:30:26.164Z,18.20
2019-01-09T15:32:55.440Z,18.20
2019-01-09T15:35:24.837Z,18.20
2019-01-09T15:37:54.028Z,18.30
2019-01-09T15:40:25.223Z,18.30
2019-01-09T15:42:54.777Z,18.30
2019-01-09T15:45:24.293Z,18.30
2019-01-09T15:47:53.564Z,18.40
2019-01-09T15:50:23.949Z,18.40
2019-01-09T15:52:53.115Z,18.40
2019-01-09T15:55:23.220Z,18.40
2019-01-09T15:57:53.368Z,18.40
2019-01-09T16:00:27.918Z,18.40
2019-01-09T16:02:57.582Z,18.50
2019-01-09T16:05:26.648Z,18.50
2019-01-09T16:07:56.112Z,18.50
2019-01-09T16:10:26.210Z,18.50
2019-01-09T16:12:56.529Z,18.50
2019-01-09T16:15:25.686Z,18.60
2019-01-09T16:17:54.416Z,18.60
2019-01-09T16:20:23.515Z,18.60
2019-01-09T16:22:52.988Z,18.60
2019-01-09T16:25:22.772Z,18.60
2019-01-09T16:27:52.521Z,18.60
2019-01-09T16:30:34.289Z,18.70
2019-01-09T16:33:00.427Z,18.70
2019-01-09T16:35:30.996Z,18.70
2019-01-09T16:38:01.835Z,18.70
2019-01-09T16:40:31.554Z,18.70
2019-01-09T16:43:00.785Z,18.80
2019-01-09T16:45:29.357Z,18.80
2019-01-09T16:50:27.519Z,18.80
2019-01-09T16:52:56.332Z,18.80
2019-01-09T16:55:25.564Z,18.90
2019-01-09T16:57:54.864Z,18.90
2019-01-09T17:00:26.633Z,18.90
2019-01-09T17:02:55.642Z,18.90
2019-01-09T17:05:24.378Z,18.90
2019-01-09T17:07:53.159Z,18.90
2019-01-09T17:10:22.325Z,18.90
2019-01-09T17:12:51.624Z,18.90
2019-01-09T17:15:20.431Z,18.80
2019-01-09T17:17:49.950Z,18.80
2019-01-09T17:20:19.784Z,18.80
2019-01-09T17:22:49.032Z,18.90
2019-01-09T17:25:17.961Z,18.80
2019-01-09T17:27:46.979Z,18.80
2019-01-09T17:30:19.989Z,18.80
2019-01-09T17:32:51.573Z,18.80
2019-01-09T17:35:20.344Z,18.90
2019-01-09T17:37:49.168Z,18.90
2019-01-09T17:40:18.129Z,18.90
2019-01-09T17:42:47.677Z,19.00
2019-01-09T17:45:16.814Z,19.10
2019-01-09T17:47:46.421Z,19.20
2019-01-09T17:50:19.322Z,19.30
2019-01-09T17:52:48.845Z,19.40
2019-01-09T17:55:19.793Z,19.50
2019-01-09T17:57:48.689Z,19.60
2019-01-09T18:00:19.924Z,19.70
2019-01-09T18:02:50.002Z,19.70
2019-01-09T18:05:18.834Z,19.90
2019-01-09T18:10:19.452Z,20.00
2019-01-09T18:12:48.672Z,20.10
2019-01-09T18:15:20.380Z,20.20
2019-01-09T18:17:49.494Z,20.20
2019-01-09T18:20:18.574Z,20.30
2019-01-09T18:22:48.335Z,20.40
2019-01-09T18:25:20.563Z,20.40
2019-01-09T18:27:50.931Z,20.40
2019-01-09T18:30:24.457Z,20.40
2019-01-09T18:33:04.330Z,20.50
2019-01-09T18:35:43.361Z,20.40
2019-01-09T18:38:20.446Z,20.40
2019-01-09T18:41:32.561Z,20.40
2019-01-09T18:44:11.759Z,20.40
2019-01-09T18:46:54.498Z,20.30
2019-01-09T18:49:33.120Z,20.30
2019-01-09T18:52:29.818Z,20.20
2019-01-09T18:54:58.579Z,20.20
2019-01-09T18:57:27.716Z,20.10
2019-01-09T18:59:56.944Z,20.10
2019-01-09T19:02:26.405Z,20.00
2019-01-09T19:04:55.426Z,20.00
2019-01-09T19:07:24.239Z,19.90
2019-01-09T19:09:53.863Z,19.90
2019-01-09T19:12:23.115Z,19.80
2019-01-09T19:14:52.291Z,19.80
2019-01-09T19:17:21.105Z,19.70
2019-01-09T19:19:49.814Z,19.70
2019-01-09T19:22:18.851Z,19.60
2019-01-09T19:24:48.039Z,19.60
2019-01-09T19:27:17.456Z,19.50
2019-01-09T19:29:46.625Z,19.40
2019-01-09T19:32:15.871Z,19.40
2019-01-09T19:34:45.706Z,19.40
2019-01-09T19:37:14.672Z,19.30
2019-01-09T19:42:12.286Z,19.20
2019-01-09T19:44:41.158Z,19.20
2019-01-09T19:47:10.226Z,19.10
2019-01-09T19:49:39.256Z,19.00
2019-01-09T19:52:08.325Z,19.00
2019-01-09T19:54:37.457Z,19.00
2019-01-09T19:57:06.480Z,18.90
2019-01-09T19:59:35.965Z,18.90
2019-01-09T20:02:04.745Z,18.90
2019-01-09T20:04:33.464Z,18.80
2019-01-09T20:07:02.893Z,18.80
2019-01-09T20:09:32.307Z,18.70
2019-01-09T20:12:01.887Z,18.70
2019-01-09T20:14:31.647Z,18.60
2019-01-09T20:19:29.344Z,18.60
2019-01-09T20:21:58.709Z,18.50
2019-01-09T20:24:28.460Z,18.50
2019-01-09T20:26:58.105Z,18.50
2019-01-09T20:29:27.234Z,18.50
2019-01-09T20:31:56.087Z,18.40
2019-01-09T20:34:25.610Z,18.40
2019-01-09T20:36:54.529Z,18.40
2019-01-09T20:39:23.606Z,18.30
2019-01-09T20:41:53.292Z,18.30
2019-01-09T20:44:22.949Z,18.30
2019-01-09T20:46:51.798Z,18.30
2019-01-09T20:49:21.343Z,18.20
2019-01-09T20:51:50.180Z,18.20
2019-01-09T20:54:19.557Z,18.20
2019-01-09T20:56:49.164Z,18.10
2019-01-09T20:59:18.154Z,18.10
2019-01-09T21:01:47.612Z,18.10
2019-01-09T21:04:16.785Z,18.10
2019-01-09T21:06:45.908Z,18.00
2019-01-09T21:09:15.095Z,18.00
2019-01-09T21:11:44.542Z,18.00
2019-01-09T21:14:13.438Z,18.00
2019-01-09T21:16:42.510Z,18.00
2019-01-09T21:19:11.874Z,17.90
2019-01-09T21:21:41.329Z,17.90
2019-01-09T21:24:10.844Z,17.90
2019-01-09T21:26:39.951Z,17.90
2019-01-09T21:29:08.671Z,17.80
2019-01-09T21:31:37.964Z,17.80
2019-01-09T21:34:07.498Z,17.80
2019-01-09T21:36:37.070Z,17.80
2019-01-09T21:39:08.336Z,17.70
2019-01-09T21:41:37.511Z,17.70
2019-01-09T21:44:15.616Z,17.70
2019-01-09T21:46:35.781Z,17.70
2019-01-09T21:49:04.604Z,17.70
2019-01-09T21:51:33.799Z,17.70
2019-01-09T21:54:02.910Z,17.70
2019-01-09T21:56:32.734Z,17.70
